Terminal Aerodrome Forecast
Issued by NWS Wilmington, OH

Current Version | Previous Version | Text Only | Print | Product List | Glossary Off
Versions: 1 2 3 4 5 6 7 8 9 10 11 12 13 14 15 16 17 18 19 20 21 22 23

000
FTUS41 KILN 311100
TAFDAY
TAF
KDAY 311138Z 3112/0112 00000KT 2SM -SHRA BR BKN004 OVC012
     FM311300 21007KT 3SM -SHRA BR SCT008 OVC012
     FM311600 21008KT P6SM -SHRA OVC015
     FM311900 21009KT P6SM VCTS BKN025CB
     FM312300 20007KT P6SM BKN100
     FM011000 21006KT 5SM BR OVC015=

USA.gov is the U.S. government's official web portal to all federal, state and local government web resources and services.